Time;durP1;ratioP1;P1;durP2;ratioP2;P2;SDS_P1;SDS_P2;PMS_P1;PMS_P2;Temp;Humidity;BMP_temperature;BMP_pressure;BME280_temperature;BME280_humidity;BME280_pressure;Samples;Min_cycle;Max_cycle;Signal;HPM_P1;HPM_P2
2022/04/10 00:00:11;;;;;;;7.87;2.63;;;;;;;;;;6313946;22;20164;-86
2022/04/10 00:03:22;;;;;;;8.27;2.73;;;;;;;;;;6313783;22;20193;-86
2022/04/10 00:06:27;;;;;;;6.77;2.57;;;;;;;;;;6313147;22;20239;-85
2022/04/10 00:09:32;;;;;;;7.83;2.63;;;;;;;;;;6312837;22;20164;-85
2022/04/10 00:12:43;;;;;;;9.57;3.13;;;;;;;;;;6295264;22;20168;-85
2022/04/10 00:15:48;;;;;;;7.77;2.77;;;;;;;;;;6246468;22;1147930;-87
2022/04/10 00:18:54;;;;;;;9.60;2.77;;;;;;;;;;6300866;22;20161;-85
2022/04/10 00:22:00;;;;;;;6.50;2.90;;;;;;;;;;6299471;22;20169;-86
2022/04/10 00:25:05;;;;;;;7.33;3.30;;;;;;;;;;6298116;22;20169;-85
2022/04/10 00:28:10;;;;;;;10.50;3.70;;;;;;;;;;6316332;22;20177;-84
2022/04/10 00:31:15;;;;;;;10.00;3.63;;;;;;;;;;6317628;22;20165;-86
2022/04/10 00:34:21;;;;;;;10.07;3.60;;;;;;;;;;6318694;22;20173;-86
2022/04/10 00:37:28;;;;;;;6.53;3.30;;;;;;;;;;6316506;22;20169;-85
2022/04/10 00:40:33;;;;;;;8.43;3.40;;;;;;;;;;6316429;22;20287;-85
2022/04/10 00:43:40;;;;;;;11.20;3.30;;;;;;;;;;6317202;22;20188;-84
2022/04/10 00:46:45;;;;;;;8.13;2.90;;;;;;;;;;6317177;22;20164;-85
2022/04/10 00:49:53;;;;;;;8.40;3.10;;;;;;;;;;6301591;22;20247;-84
2022/04/10 00:52:59;;;;;;;5.67;3.00;;;;;;;;;;6300389;22;20164;-84
2022/04/10 00:56:04;;;;;;;5.90;2.60;;;;;;;;;;6299501;22;20237;-83
2022/04/10 00:59:09;;;;;;;6.83;3.00;;;;;;;;;;6298881;22;20210;-84
2022/04/10 01:02:14;;;;;;;11.70;3.50;;;;;;;;;;6317557;22;20288;-85
2022/04/10 01:05:21;;;;;;;9.57;3.10;;;;;;;;;;6315441;22;20173;-85
2022/04/10 01:08:27;;;;;;;8.17;3.00;;;;;;;;;;6315170;22;20157;-85
2022/04/10 01:11:34;;;;;;;9.13;3.00;;;;;;;;;;6297132;22;20172;-85
2022/04/10 01:14:40;;;;;;;6.77;3.23;;;;;;;;;;6315345;22;20723;-85
2022/04/10 01:17:47;;;;;;;7.70;3.40;;;;;;;;;;6316945;22;20208;-85
2022/04/10 01:20:55;;;;;;;9.77;2.93;;;;;;;;;;6315893;22;20165;-84
2022/04/10 01:24:02;;;;;;;6.77;2.70;;;;;;;;;;6317302;22;20180;-84
2022/04/10 01:27:08;;;;;;;9.17;3.30;;;;;;;;;;6315713;22;20177;-86
2022/04/10 01:30:15;;;;;;;7.07;3.07;;;;;;;;;;6316415;22;20169;-86
2022/04/10 01:33:22;;;;;;;10.10;3.70;;;;;;;;;;6299772;22;20574;-85
2022/04/10 01:36:27;;;;;;;7.50;3.37;;;;;;;;;;6316802;22;20172;-84
2022/04/10 01:39:34;;;;;;;8.77;3.77;;;;;;;;;;6316312;22;20181;-84
2022/04/10 01:42:39;;;;;;;9.70;3.73;;;;;;;;;;6318037;22;20233;-86
2022/04/10 01:45:45;;;;;;;7.20;3.47;;;;;;;;;;6315633;22;20169;-86
2022/04/10 01:48:50;;;;;;;6.60;3.77;;;;;;;;;;6316425;22;20188;-86
2022/04/10 01:51:55;;;;;;;12.70;3.37;;;;;;;;;;6316517;22;20172;-86
2022/04/10 01:55:01;;;;;;;8.10;3.40;;;;;;;;;;6316170;22;20165;-85
2022/04/10 01:58:07;;;;;;;9.07;3.40;;;;;;;;;;6315247;22;20209;-85
2022/04/10 02:01:13;;;;;;;4.40;2.77;;;;;;;;;;6298223;22;20170;-87
2022/04/10 02:04:20;;;;;;;7.97;3.63;;;;;;;;;;6297972;22;20188;-86
2022/04/10 02:07:25;;;;;;;6.50;2.83;;;;;;;;;;6315727;22;20169;-85
2022/04/10 02:10:32;;;;;;;6.23;3.17;;;;;;;;;;6316856;22;20169;-85
2022/04/10 02:13:37;;;;;;;5.50;2.63;;;;;;;;;;6315969;22;20168;-85
2022/04/10 02:16:49;;;;;;;7.77;2.70;;;;;;;;;;6315431;22;20193;-85
2022/04/10 02:19:55;;;;;;;6.87;3.60;;;;;;;;;;6317043;22;20153;-88
2022/04/10 02:23:00;;;;;;;8.03;2.90;;;;;;;;;;6299324;22;20189;-86
2022/04/10 02:26:06;;;;;;;7.97;3.30;;;;;;;;;;6315233;22;20257;-86
2022/04/10 02:29:12;;;;;;;10.83;2.77;;;;;;;;;;6315364;22;20600;-86
2022/04/10 02:32:17;;;;;;;4.87;2.40;;;;;;;;;;6315341;22;20169;-85
2022/04/10 02:35:22;;;;;;;10.67;3.20;;;;;;;;;;6296626;22;20168;-87
2022/04/10 02:38:28;;;;;;;6.60;3.10;;;;;;;;;;6297680;22;20177;-86
2022/04/10 02:41:35;;;;;;;5.43;2.80;;;;;;;;;;6298157;22;20195;-85
2022/04/10 02:44:40;;;;;;;10.53;3.40;;;;;;;;;;6317921;22;20231;-86
2022/04/10 02:47:44;;;;;;;7.03;2.70;;;;;;;;;;6298165;22;20215;-86
2022/04/10 02:50:49;;;;;;;6.03;2.70;;;;;;;;;;6316316;22;20175;-86
2022/04/10 02:53:55;;;;;;;5.73;2.80;;;;;;;;;;6316757;22;20276;-84
2022/04/10 02:57:02;;;;;;;7.33;2.93;;;;;;;;;;6316320;22;20618;-86
2022/04/10 03:00:07;;;;;;;7.43;3.50;;;;;;;;;;6317065;22;20243;-86
2022/04/10 03:03:13;;;;;;;6.03;3.03;;;;;;;;;;6315841;22;20193;-86
2022/04/10 03:06:18;;;;;;;7.67;3.10;;;;;;;;;;6298520;22;20161;-85
2022/04/10 03:09:25;;;;;;;7.50;3.67;;;;;;;;;;6297657;22;20271;-86
2022/04/10 03:12:34;;;;;;;7.97;3.17;;;;;;;;;;6315753;22;20168;-86
2022/04/10 03:15:41;;;;;;;9.33;3.53;;;;;;;;;;6298256;22;20238;-85
2022/04/10 03:18:46;;;;;;;6.40;3.10;;;;;;;;;;6316862;22;20685;-86
2022/04/10 03:21:51;;;;;;;10.83;3.53;;;;;;;;;;6301257;22;20170;-86
2022/04/10 03:24:56;;;;;;;10.03;3.67;;;;;;;;;;6316417;22;20215;-85
2022/04/10 03:28:03;;;;;;;8.23;3.67;;;;;;;;;;6298382;22;20169;-84
2022/04/10 03:31:08;;;;;;;8.83;3.43;;;;;;;;;;6297973;22;20204;-84
2022/04/10 03:34:13;;;;;;;9.67;3.47;;;;;;;;;;6317088;22;20169;-85
2022/04/10 03:37:19;;;;;;;8.83;3.20;;;;;;;;;;6301001;22;20213;-85
2022/04/10 03:40:25;;;;;;;7.03;3.03;;;;;;;;;;6299347;22;20181;-85
2022/04/10 03:43:33;;;;;;;7.87;3.23;;;;;;;;;;6296646;22;20189;-85
2022/04/10 03:46:38;;;;;;;8.57;3.57;;;;;;;;;;6317424;22;20224;-86
2022/04/10 03:49:44;;;;;;;7.57;3.40;;;;;;;;;;6315487;22;20165;-84
2022/04/10 03:52:49;;;;;;;9.83;3.37;;;;;;;;;;6315590;22;20208;-83
2022/04/10 03:55:56;;;;;;;5.67;3.47;;;;;;;;;;6297649;22;20287;-83
2022/04/10 03:59:03;;;;;;;7.47;3.27;;;;;;;;;;6320296;22;20153;-83
2022/04/10 04:02:09;;;;;;;11.97;3.83;;;;;;;;;;6320144;22;20169;-85
2022/04/10 04:05:16;;;;;;;11.27;3.70;;;;;;;;;;6301188;22;20173;-85
2022/04/10 04:08:21;;;;;;;10.10;3.30;;;;;;;;;;6301909;22;20592;-85
2022/04/10 04:11:29;;;;;;;8.07;3.20;;;;;;;;;;6320191;22;20169;-85
2022/04/10 04:14:37;;;;;;;9.53;3.57;;;;;;;;;;6319225;22;20168;-85
2022/04/10 04:17:42;;;;;;;9.47;3.43;;;;;;;;;;6317806;22;20182;-83
2022/04/10 04:20:48;;;;;;;12.50;3.87;;;;;;;;;;6318898;22;20157;-84
2022/04/10 04:23:53;;;;;;;8.07;3.80;;;;;;;;;;6319047;22;20240;-84
2022/04/10 04:26:58;;;;;;;10.90;3.70;;;;;;;;;;6320706;22;20156;-83
2022/04/10 04:30:06;;;;;;;7.83;3.63;;;;;;;;;;6318957;22;20169;-84
2022/04/10 04:33:13;;;;;;;7.13;3.43;;;;;;;;;;6302376;22;20184;-84
2022/04/10 04:36:18;;;;;;;7.27;3.50;;;;;;;;;;6301652;22;20612;-85
2022/04/10 04:39:25;;;;;;;7.83;3.63;;;;;;;;;;6320080;22;20226;-84
2022/04/10 04:42:29;;;;;;;5.10;3.37;;;;;;;;;;6321021;22;20499;-85
2022/04/10 04:45:37;;;;;;;13.10;3.53;;;;;;;;;;6321146;22;20489;-85
2022/04/10 04:48:50;;;;;;;7.07;3.50;;;;;;;;;;6321363;22;20162;-84
2022/04/10 04:51:55;;;;;;;11.57;4.33;;;;;;;;;;6301289;22;20168;-86
2022/04/10 04:55:00;;;;;;;5.07;3.10;;;;;;;;;;6302497;22;20149;-84
2022/04/10 04:58:06;;;;;;;10.93;3.83;;;;;;;;;;6303742;22;20204;-85
2022/04/10 05:01:17;;;;;;;6.70;3.30;;;;;;;;;;6302917;22;20235;-86
2022/04/10 05:04:23;;;;;;;6.77;4.10;;;;;;;;;;6322785;22;20192;-85
2022/04/10 05:07:29;;;;;;;8.03;3.87;;;;;;;;;;6320599;22;20169;-84
2022/04/10 05:10:35;;;;;;;12.37;4.60;;;;;;;;;;6301370;22;20161;-84
2022/04/10 05:13:43;;;;;;;14.40;4.23;;;;;;;;;;6304827;22;20152;-84
2022/04/10 05:16:53;;;;;;;8.03;3.80;;;;;;;;;;6301845;22;20200;-84
2022/04/10 05:19:59;;;;;;;12.77;4.17;;;;;;;;;;6300663;22;20700;-85
2022/04/10 05:23:05;;;;;;;8.23;3.90;;;;;;;;;;6301349;22;20580;-84
2022/04/10 05:26:14;;;;;;;10.83;3.97;;;;;;;;;;6317914;22;20156;-83
2022/04/10 05:29:22;;;;;;;8.17;4.00;;;;;;;;;;6320291;22;20184;-85
2022/04/10 05:32:31;;;;;;;7.63;4.00;;;;;;;;;;6321076;22;20211;-85
2022/04/10 05:35:37;;;;;;;11.00;3.40;;;;;;;;;;6317283;22;20219;-85
2022/04/10 05:38:45;;;;;;;5.30;3.33;;;;;;;;;;6319332;22;20145;-85
2022/04/10 05:41:52;;;;;;;7.13;3.60;;;;;;;;;;6317986;22;20169;-85
2022/04/10 05:45:01;;;;;;;7.53;3.63;;;;;;;;;;6320732;22;20193;-86
2022/04/10 05:48:08;;;;;;;6.97;3.90;;;;;;;;;;6319577;22;20169;-86
2022/04/10 05:51:13;;;;;;;7.53;3.90;;;;;;;;;;6320109;22;20506;-86
2022/04/10 05:54:20;;;;;;;7.77;4.00;;;;;;;;;;6321876;22;20213;-87
2022/04/10 05:57:28;;;;;;;7.37;3.50;;;;;;;;;;6318666;22;20169;-85
2022/04/10 06:00:33;;;;;;;7.63;4.03;;;;;;;;;;6318644;22;20166;-84
2022/04/10 06:03:49;;;;;;;9.30;4.00;;;;;;;;;;6319807;22;20196;-86
2022/04/10 06:06:55;;;;;;;8.27;4.17;;;;;;;;;;6318186;22;20235;-86
2022/04/10 06:10:09;;;;;;;8.37;4.10;;;;;;;;;;6319126;22;20145;-84
2022/04/10 06:13:15;;;;;;;10.20;4.13;;;;;;;;;;6319165;22;20229;-84
2022/04/10 06:16:31;;;;;;;7.97;3.80;;;;;;;;;;6318550;22;20189;-84
2022/04/10 06:19:38;;;;;;;12.13;4.40;;;;;;;;;;6320261;22;20705;-85
2022/04/10 06:22:49;;;;;;;10.60;4.40;;;;;;;;;;6300010;22;20462;-85
2022/04/10 06:25:56;;;;;;;8.90;4.20;;;;;;;;;;6318568;22;20157;-85
2022/04/10 06:29:03;;;;;;;6.63;3.50;;;;;;;;;;6320351;22;20242;-83
2022/04/10 06:32:20;;;;;;;9.00;3.20;;;;;;;;;;6320225;22;20161;-87
2022/04/10 06:35:26;;;;;;;11.07;3.40;;;;;;;;;;6301960;22;20181;-87
2022/04/10 06:38:34;;;;;;;11.57;3.63;;;;;;;;;;6318034;22;20165;-86
2022/04/10 06:41:44;;;;;;;7.60;3.50;;;;;;;;;;6318208;22;20193;-86
2022/04/10 06:45:02;;;;;;;6.57;2.90;;;;;;;;;;6319946;22;20232;-87
2022/04/10 06:48:25;;;;;;;8.00;3.20;;;;;;;;;;6321336;22;20352;-85
2022/04/10 06:51:32;;;;;;;6.40;3.33;;;;;;;;;;6318730;22;20169;-86
2022/04/10 06:54:40;;;;;;;10.93;3.30;;;;;;;;;;6318499;22;20180;-85
2022/04/10 06:57:45;;;;;;;9.70;3.40;;;;;;;;;;6317574;22;20170;-84
2022/04/10 07:00:53;;;;;;;10.60;3.70;;;;;;;;;;6301919;22;20192;-85
2022/04/10 07:04:00;;;;;;;12.40;3.27;;;;;;;;;;6320158;22;20169;-86
2022/04/10 07:07:11;;;;;;;7.10;3.40;;;;;;;;;;6301695;22;20164;-85
2022/04/10 07:10:16;;;;;;;9.27;3.40;;;;;;;;;;6319860;22;20204;-87
2022/04/10 07:13:23;;;;;;;14.50;3.73;;;;;;;;;;6301073;22;20160;-86
2022/04/10 07:16:29;;;;;;;7.77;3.70;;;;;;;;;;6319002;22;20331;-86
2022/04/10 07:19:34;;;;;;;11.70;4.33;;;;;;;;;;6300667;22;20256;-84
2022/04/10 07:26:04;;;;;;;9.37;4.60;;;;;;;;;;6317339;22;20195;-83
2022/04/10 07:29:12;;;;;;;10.13;4.57;;;;;;;;;;6317368;22;20165;-86
2022/04/10 07:32:20;;;;;;;12.40;4.40;;;;;;;;;;6319205;22;20169;-85
2022/04/10 07:35:35;;;;;;;13.07;5.03;;;;;;;;;;6301133;22;20616;-85
2022/04/10 07:38:54;;;;;;;9.57;4.60;;;;;;;;;;6300639;22;20186;-86
2022/04/10 07:42:10;;;;;;;11.50;4.80;;;;;;;;;;6300684;22;20612;-85
2022/04/10 07:48:39;;;;;;;10.57;4.60;;;;;;;;;;6300938;22;20249;-84
2022/04/10 07:51:45;;;;;;;12.30;4.30;;;;;;;;;;6317246;22;20211;-84
2022/04/10 07:54:58;;;;;;;10.83;4.53;;;;;;;;;;6319319;22;20153;-86
2022/04/10 07:58:05;;;;;;;8.47;4.47;;;;;;;;;;6299632;22;20165;-84
2022/04/10 08:01:11;;;;;;;8.07;4.07;;;;;;;;;;6317975;22;20153;-85
2022/04/10 08:04:17;;;;;;;12.13;4.07;;;;;;;;;;6299114;22;20628;-85
2022/04/10 08:07:33;;;;;;;10.93;4.60;;;;;;;;;;6315137;22;20166;-85
2022/04/10 08:10:40;;;;;;;11.00;4.77;;;;;;;;;;6299413;22;20153;-86
2022/04/10 08:13:45;;;;;;;9.67;4.33;;;;;;;;;;6317490;22;20165;-86
2022/04/10 08:16:50;;;;;;;8.60;3.93;;;;;;;;;;6299107;22;20626;-84
2022/04/10 08:19:55;;;;;;;11.60;3.83;;;;;;;;;;6318655;22;20272;-85
2022/04/10 08:23:00;;;;;;;8.67;3.80;;;;;;;;;;6299912;22;20160;-85
2022/04/10 08:26:08;;;;;;;8.40;3.53;;;;;;;;;;6316997;22;20193;-85
2022/04/10 08:29:13;;;;;;;7.70;3.28;;;;;;;;;;6319932;22;20597;-85
2022/04/10 08:32:19;;;;;;;7.07;3.35;;;;;;;;;;6318866;22;20211;-87
2022/04/10 08:35:23;;;;;;;7.25;3.13;;;;;;;;;;6300934;22;20168;-86
2022/04/10 08:38:30;;;;;;;11.82;3.13;;;;;;;;;;6319228;22;20166;-85
2022/04/10 08:41:38;;;;;;;8.40;2.97;;;;;;;;;;6299343;22;20191;-84
2022/04/10 08:44:43;;;;;;;8.43;2.65;;;;;;;;;;6319526;22;20253;-85
2022/04/10 08:47:48;;;;;;;5.00;2.72;;;;;;;;;;6322455;22;20285;-85
2022/04/10 08:50:54;;;;;;;5.93;2.33;;;;;;;;;;6322300;22;20528;-85
2022/04/10 08:54:01;;;;;;;13.10;2.88;;;;;;;;;;6320516;22;20164;-86
2022/04/10 08:57:08;;;;;;;3.75;2.40;;;;;;;;;;6318909;22;20168;-84
2022/04/10 09:00:13;;;;;;;14.82;3.92;;;;;;;;;;6319721;22;20491;-87
2022/04/10 09:03:18;;;;;;;9.27;3.83;;;;;;;;;;6319371;22;20210;-85
2022/04/10 09:06:23;;;;;;;4.32;2.38;;;;;;;;;;6300499;22;20209;-85
2022/04/10 09:09:32;;;;;;;4.85;2.60;;;;;;;;;;6303712;22;20154;-85
2022/04/10 09:12:47;;;;;;;10.20;2.80;;;;;;;;;;6301610;22;20164;-85
2022/04/10 09:15:53;;;;;;;12.43;3.17;;;;;;;;;;6320272;22;20241;-85
2022/04/10 09:19:00;;;;;;;6.57;2.70;;;;;;;;;;6322554;22;20208;-85
2022/04/10 09:22:20;;;;;;;8.77;2.63;;;;;;;;;;6303543;22;20165;-87
2022/04/10 09:25:25;;;;;;;7.00;2.50;;;;;;;;;;6319706;22;20193;-86
2022/04/10 09:28:43;;;;;;;14.77;2.60;;;;;;;;;;6318348;22;20163;-86
2022/04/10 09:31:49;;;;;;;8.67;2.83;;;;;;;;;;6301914;22;20153;-86
2022/04/10 09:34:57;;;;;;;8.60;2.80;;;;;;;;;;6319789;22;20164;-86
2022/04/10 09:38:02;;;;;;;7.75;2.50;;;;;;;;;;6298049;22;21046;-85
2022/04/10 09:41:14;;;;;;;6.63;2.50;;;;;;;;;;6317590;22;20211;-85
2022/04/10 09:44:21;;;;;;;9.38;3.45;;;;;;;;;;6300017;22;20152;-84
2022/04/10 09:47:27;;;;;;;6.20;2.33;;;;;;;;;;6319438;22;20179;-85
2022/04/10 09:50:33;;;;;;;4.05;2.10;;;;;;;;;;6319551;22;20162;-86
2022/04/10 09:53:40;;;;;;;6.20;2.13;;;;;;;;;;6317386;22;20288;-85
2022/04/10 09:56:46;;;;;;;8.70;2.10;;;;;;;;;;6316538;22;20170;-86
2022/04/10 09:59:53;;;;;;;8.40;2.00;;;;;;;;;;6298928;22;20153;-84
2022/04/10 10:03:00;;;;;;;7.22;1.80;;;;;;;;;;6316310;22;20246;-84
2022/04/10 10:06:05;;;;;;;4.05;1.90;;;;;;;;;;6315434;22;20219;-86
2022/04/10 10:09:10;;;;;;;49.92;9.55;;;;;;;;;;6317760;22;20252;-85
2022/04/10 10:12:23;;;;;;;6.88;1.73;;;;;;;;;;6295824;22;20311;-84
2022/04/10 10:15:31;;;;;;;9.18;2.20;;;;;;;;;;6296785;22;20205;-85
2022/04/10 10:18:36;;;;;;;6.95;1.75;;;;;;;;;;6315984;22;20169;-85
2022/04/10 10:21:42;;;;;;;8.75;1.88;;;;;;;;;;6316469;22;20173;-87
2022/04/10 10:24:51;;;;;;;8.25;1.90;;;;;;;;;;6297850;22;20250;-86
2022/04/10 10:28:03;;;;;;;3.55;1.52;;;;;;;;;;6316234;22;20176;-85
2022/04/10 10:31:22;;;;;;;5.50;1.73;;;;;;;;;;6297476;22;20149;-86
2022/04/10 10:34:29;;;;;;;5.05;1.73;;;;;;;;;;6297451;22;20169;-85
2022/04/10 10:37:47;;;;;;;4.03;1.60;;;;;;;;;;6315579;22;20149;-86
2022/04/10 10:40:52;;;;;;;7.45;1.60;;;;;;;;;;6316319;22;20160;-85
2022/04/10 10:43:58;;;;;;;4.35;1.45;;;;;;;;;;6316218;22;20169;-86
2022/04/10 10:47:05;;;;;;;5.20;1.80;;;;;;;;;;6316473;22;20849;-85
2022/04/10 10:50:25;;;;;;;7.30;1.98;;;;;;;;;;6299491;22;20173;-85
2022/04/10 10:53:43;;;;;;;4.53;1.73;;;;;;;;;;6317255;22;20173;-86
2022/04/10 10:56:50;;;;;;;3.65;1.38;;;;;;;;;;6315797;22;20165;-83
2022/04/10 11:00:05;;;;;;;4.60;1.35;;;;;;;;;;6316545;22;20172;-85
2022/04/10 11:03:12;;;;;;;3.95;1.30;;;;;;;;;;6317528;22;20166;-87
2022/04/10 11:06:17;;;;;;;8.27;1.70;;;;;;;;;;6299277;22;20247;-86
2022/04/10 11:09:26;;;;;;;3.88;1.40;;;;;;;;;;6318577;22;20185;-86
2022/04/10 11:12:33;;;;;;;4.97;1.30;;;;;;;;;;6316030;22;20169;-86
2022/04/10 11:15:48;;;;;;;4.75;1.10;;;;;;;;;;6295992;22;20267;-85
2022/04/10 11:18:57;;;;;;;3.90;1.00;;;;;;;;;;6315389;22;20689;-85
2022/04/10 11:22:02;;;;;;;3.97;1.80;;;;;;;;;;6297976;22;20181;-85
2022/04/10 11:25:07;;;;;;;2.20;1.08;;;;;;;;;;6296494;22;20165;-86
2022/04/10 11:28:12;;;;;;;4.00;1.40;;;;;;;;;;6313648;22;20172;-86
2022/04/10 11:31:27;;;;;;;3.67;1.15;;;;;;;;;;6315893;22;20173;-85
2022/04/10 11:34:41;;;;;;;4.55;1.40;;;;;;;;;;6317724;22;20184;-86
2022/04/10 11:37:49;;;;;;;5.78;1.42;;;;;;;;;;6297696;22;20180;-86
2022/04/10 11:40:57;;;;;;;4.43;1.40;;;;;;;;;;6314548;22;20187;-86
2022/04/10 11:44:02;;;;;;;4.75;1.40;;;;;;;;;;6313798;22;20188;-86
2022/04/10 11:47:08;;;;;;;5.82;1.58;;;;;;;;;;6315716;22;20176;-87
2022/04/10 11:50:15;;;;;;;5.88;1.70;;;;;;;;;;6298321;22;20191;-86
2022/04/10 11:53:20;;;;;;;2.55;1.30;;;;;;;;;;6316768;22;20177;-86
2022/04/10 11:56:25;;;;;;;6.47;1.52;;;;;;;;;;6313112;22;20236;-87
2022/04/10 11:59:34;;;;;;;4.10;1.40;;;;;;;;;;6315467;22;20172;-86
2022/04/10 12:02:40;;;;;;;4.35;1.30;;;;;;;;;;6314865;22;20169;-86
2022/04/10 12:05:47;;;;;;;3.50;1.40;;;;;;;;;;6314956;22;20267;-86
2022/04/10 12:08:55;;;;;;;5.95;1.52;;;;;;;;;;6314999;22;20496;-87
2022/04/10 12:12:00;;;;;;;5.90;1.58;;;;;;;;;;6314219;22;20612;-86
2022/04/10 12:15:16;;;;;;;3.25;1.20;;;;;;;;;;6314296;22;20156;-85
2022/04/10 12:18:23;;;;;;;7.22;1.58;;;;;;;;;;6314522;22;20764;-84
2022/04/10 12:21:30;;;;;;;4.10;1.60;;;;;;;;;;6316592;22;20169;-84
2022/04/10 12:24:35;;;;;;;3.90;1.70;;;;;;;;;;6298170;22;20165;-86
2022/04/10 12:27:42;;;;;;;3.83;1.75;;;;;;;;;;6316670;22;20165;-86
2022/04/10 12:30:48;;;;;;;5.53;2.47;;;;;;;;;;6315827;22;20169;-86
2022/04/10 12:33:52;;;;;;;4.60;1.50;;;;;;;;;;6298652;22;20169;-86
2022/04/10 12:37:07;;;;;;;6.78;1.52;;;;;;;;;;6318460;22;20383;-86
2022/04/10 12:40:12;;;;;;;3.55;1.30;;;;;;;;;;6317350;22;20529;-87
2022/04/10 12:43:18;;;;;;;4.05;1.58;;;;;;;;;;6315623;22;20169;-85
2022/04/10 12:46:33;;;;;;;4.68;1.52;;;;;;;;;;6297577;22;20196;-84
2022/04/10 12:49:39;;;;;;;6.70;1.75;;;;;;;;;;6318895;22;20361;-85
2022/04/10 12:52:45;;;;;;;4.90;1.45;;;;;;;;;;6320088;22;20444;-87
2022/04/10 12:55:50;;;;;;;4.05;1.25;;;;;;;;;;6319295;22;20184;-86
2022/04/10 12:58:55;;;;;;;1.88;1.00;;;;;;;;;;6317798;22;20241;-87
2022/04/10 13:02:00;;;;;;;4.18;1.30;;;;;;;;;;6316128;22;20197;-86
2022/04/10 13:05:06;;;;;;;5.38;1.50;;;;;;;;;;6318880;22;20149;-86
2022/04/10 13:08:12;;;;;;;5.10;1.30;;;;;;;;;;6318538;22;20500;-86
2022/04/10 13:11:17;;;;;;;3.38;2.08;;;;;;;;;;6300180;22;20224;-86
2022/04/10 13:14:25;;;;;;;3.50;0.98;;;;;;;;;;6318221;22;20165;-84
2022/04/10 13:17:32;;;;;;;2.53;1.10;;;;;;;;;;6297322;22;20236;-87
2022/04/10 13:20:38;;;;;;;3.42;1.20;;;;;;;;;;6319199;22;20165;-86
2022/04/10 13:23:46;;;;;;;7.15;1.60;;;;;;;;;;6317131;22;20211;-87
2022/04/10 13:26:51;;;;;;;2.72;1.00;;;;;;;;;;6317479;22;20188;-86
2022/04/10 13:29:56;;;;;;;4.05;0.98;;;;;;;;;;6300345;22;20169;-86
2022/04/10 13:33:01;;;;;;;3.08;1.42;;;;;;;;;;6317978;22;20188;-86
2022/04/10 13:36:06;;;;;;;5.30;1.23;;;;;;;;;;6318033;22;20184;-86
2022/04/10 13:39:13;;;;;;;2.85;1.10;;;;;;;;;;6302872;22;20177;-88
2022/04/10 13:42:18;;;;;;;5.97;1.40;;;;;;;;;;6318089;22;20287;-85
2022/04/10 13:45:23;;;;;;;5.97;1.20;;;;;;;;;;6318685;22;20169;-86
2022/04/10 13:48:28;;;;;;;3.85;1.30;;;;;;;;;;6318428;22;20161;-86
2022/04/10 13:51:33;;;;;;;3.22;1.20;;;;;;;;;;6320048;22;20165;-86
2022/04/10 13:54:39;;;;;;;4.15;1.33;;;;;;;;;;6319110;22;20169;-87
2022/04/10 13:57:47;;;;;;;4.00;1.35;;;;;;;;;;6301805;22;20243;-86
2022/04/10 14:00:53;;;;;;;5.32;1.50;;;;;;;;;;6301392;22;20170;-88
2022/04/10 14:03:58;;;;;;;2.35;1.27;;;;;;;;;;6317099;22;20188;-86
2022/04/10 14:07:04;;;;;;;5.70;1.58;;;;;;;;;;6316155;22;20249;-86
2022/04/10 14:10:11;;;;;;;8.50;1.50;;;;;;;;;;6298449;22;20211;-86
2022/04/10 14:13:16;;;;;;;4.00;1.25;;;;;;;;;;6315368;22;20236;-86
2022/04/10 14:16:22;;;;;;;3.67;1.25;;;;;;;;;;6317361;22;20188;-87
2022/04/10 14:19:27;;;;;;;4.78;1.30;;;;;;;;;;6316282;22;20169;-88
2022/04/10 14:22:32;;;;;;;10.48;1.85;;;;;;;;;;6298060;22;20208;-86
2022/04/10 14:25:39;;;;;;;3.85;1.23;;;;;;;;;;6298166;22;20157;-86
2022/04/10 14:28:43;;;;;;;2.35;1.13;;;;;;;;;;6317018;22;20165;-85
2022/04/10 14:31:48;;;;;;;5.40;1.58;;;;;;;;;;6297522;22;20165;-87
2022/04/10 14:34:54;;;;;;;7.03;1.67;;;;;;;;;;6315123;22;20169;-87
2022/04/10 14:37:59;;;;;;;6.80;1.60;;;;;;;;;;6316349;22;20164;-87
2022/04/10 14:41:08;;;;;;;4.40;1.40;;;;;;;;;;6318468;22;20219;-87
2022/04/10 14:44:13;;;;;;;2.78;1.50;;;;;;;;;;6317112;22;20196;-86
2022/04/10 14:47:18;;;;;;;6.15;1.48;;;;;;;;;;6317148;22;20235;-87
2022/04/10 14:50:23;;;;;;;4.60;1.10;;;;;;;;;;6316391;22;20173;-84
2022/04/10 14:53:29;;;;;;;5.75;1.50;;;;;;;;;;6299050;22;20169;-85
2022/04/10 14:56:35;;;;;;;3.45;1.38;;;;;;;;;;6315881;22;20224;-85
2022/04/10 14:59:40;;;;;;;3.97;1.40;;;;;;;;;;6316310;22;20164;-86
2022/04/10 15:02:45;;;;;;;5.05;1.55;;;;;;;;;;6299906;22;20504;-88
2022/04/10 15:05:51;;;;;;;5.35;1.55;;;;;;;;;;6315516;22;20184;-85
2022/04/10 15:08:56;;;;;;;4.82;1.55;;;;;;;;;;6314970;22;20284;-86
2022/04/10 15:12:02;;;;;;;5.55;1.42;;;;;;;;;;6315706;22;20168;-86
2022/04/10 15:15:08;;;;;;;3.42;1.55;;;;;;;;;;6298289;22;20195;-86
2022/04/10 15:18:13;;;;;;;4.40;1.40;;;;;;;;;;6317081;22;20604;-86
2022/04/10 15:21:17;;;;;;;2.80;1.38;;;;;;;;;;6299050;22;20169;-85
2022/04/10 15:24:23;;;;;;;4.22;1.55;;;;;;;;;;6315271;22;20183;-86
2022/04/10 15:27:32;;;;;;;7.47;1.90;;;;;;;;;;6297309;22;20208;-86
2022/04/10 15:30:40;;;;;;;6.82;2.13;;;;;;;;;;6316445;22;20176;-85
2022/04/10 15:33:45;;;;;;;6.68;2.13;;;;;;;;;;6315936;22;20165;-86
2022/04/10 15:36:50;;;;;;;4.03;1.75;;;;;;;;;;6314849;22;20266;-85
2022/04/10 15:40:00;;;;;;;6.05;1.70;;;;;;;;;;6315359;22;20168;-85
2022/04/10 15:43:06;;;;;;;4.90;1.58;;;;;;;;;;6296599;22;20576;-85
2022/04/10 15:46:11;;;;;;;4.28;1.50;;;;;;;;;;6295321;22;20485;-85
2022/04/10 15:49:17;;;;;;;7.57;2.13;;;;;;;;;;6317954;22;20461;-85
2022/04/10 15:52:23;;;;;;;6.72;1.90;;;;;;;;;;6296030;22;20228;-83
2022/04/10 15:55:28;;;;;;;6.68;1.90;;;;;;;;;;6314666;22;20181;-85
2022/04/10 15:58:34;;;;;;;5.18;1.77;;;;;;;;;;6316175;22;20185;-85
2022/04/10 16:01:40;;;;;;;5.55;1.65;;;;;;;;;;6319626;22;20170;-85
2022/04/10 16:04:45;;;;;;;8.27;2.25;;;;;;;;;;6318754;22;20153;-86
2022/04/10 16:07:50;;;;;;;6.93;1.85;;;;;;;;;;6319505;22;20921;-86
2022/04/10 16:10:56;;;;;;;4.70;1.75;;;;;;;;;;6320893;22;20169;-85
2022/04/10 16:14:03;;;;;;;5.60;2.00;;;;;;;;;;6319130;22;20165;-88
2022/04/10 16:17:12;;;;;;;2.72;1.50;;;;;;;;;;6318624;22;20232;-88
2022/04/10 16:20:18;;;;;;;7.25;2.38;;;;;;;;;;6319443;22;20169;-87
2022/04/10 16:23:23;;;;;;;7.68;2.53;;;;;;;;;;6303375;22;20169;-86
2022/04/10 16:26:28;;;;;;;6.20;2.30;;;;;;;;;;6320302;22;20161;-86
2022/04/10 16:33:04;;;;;;;7.43;1.93;;;;;;;;;;6319468;22;20146;-86
2022/04/10 16:36:10;;;;;;;5.97;1.80;;;;;;;;;;6319300;22;20383;-86
2022/04/10 16:39:15;;;;;;;5.63;1.80;;;;;;;;;;6317589;22;20170;-89
2022/04/10 16:42:20;;;;;;;3.97;1.40;;;;;;;;;;6301175;22;20495;-86
2022/04/10 16:45:27;;;;;;;7.57;2.50;;;;;;;;;;6321663;22;20247;-87
2022/04/10 16:48:34;;;;;;;3.73;1.70;;;;;;;;;;6300898;22;20219;-86
2022/04/10 16:51:41;;;;;;;6.88;1.85;;;;;;;;;;6318997;22;20168;-88
2022/04/10 16:54:50;;;;;;;5.57;1.67;;;;;;;;;;6319858;22;20564;-85
2022/04/10 16:57:55;;;;;;;5.30;2.25;;;;;;;;;;6302604;22;20636;-86
2022/04/10 17:01:02;;;;;;;3.13;1.50;;;;;;;;;;6321740;22;20164;-87
2022/04/10 17:04:08;;;;;;;3.17;1.67;;;;;;;;;;6320869;22;20162;-85
2022/04/10 17:07:13;;;;;;;7.63;1.77;;;;;;;;;;6319906;22;20223;-87
2022/04/10 17:10:19;;;;;;;4.13;2.13;;;;;;;;;;6304365;22;20173;-86
2022/04/10 17:13:24;;;;;;;5.53;1.80;;;;;;;;;;6321744;22;20268;-87
2022/04/10 17:16:30;;;;;;;3.23;1.50;;;;;;;;;;6321340;22;20514;-86
2022/04/10 17:19:36;;;;;;;5.13;1.67;;;;;;;;;;6319522;22;20514;-85
2022/04/10 17:22:41;;;;;;;10.00;2.50;;;;;;;;;;6320557;22;20169;-86
2022/04/10 17:25:46;;;;;;;5.53;2.07;;;;;;;;;;6302299;22;20620;-86
2022/04/10 17:28:52;;;;;;;14.13;6.77;;;;;;;;;;6320805;22;20246;-85
2022/04/10 17:31:59;;;;;;;6.73;2.30;;;;;;;;;;6321194;22;20188;-87
2022/04/10 17:35:04;;;;;;;4.50;1.90;;;;;;;;;;6321980;22;20173;-86
2022/04/10 17:38:11;;;;;;;6.30;2.20;;;;;;;;;;6322285;22;20169;-86
2022/04/10 17:41:17;;;;;;;3.73;2.00;;;;;;;;;;6322984;22;20176;-87
2022/04/10 17:44:23;;;;;;;5.50;2.73;;;;;;;;;;6304280;22;20165;-87
2022/04/10 17:47:37;;;;;;;6.00;2.37;;;;;;;;;;6304831;22;20215;-86
2022/04/10 17:50:42;;;;;;;6.67;2.30;;;;;;;;;;6320585;22;20237;-85
2022/04/10 17:53:48;;;;;;;5.30;1.87;;;;;;;;;;6303076;22;20169;-87
2022/04/10 17:57:32;;;;;;;5.07;2.00;;;;;;;;;;6320362;22;20239;-86
2022/04/10 18:00:38;;;;;;;4.33;2.07;;;;;;;;;;6302164;22;20279;-87
2022/04/10 18:03:45;;;;;;;5.77;2.33;;;;;;;;;;6321206;22;20165;-86
2022/04/10 18:06:51;;;;;;;5.80;2.00;;;;;;;;;;6303296;22;20208;-86
2022/04/10 18:09:56;;;;;;;24.20;11.07;;;;;;;;;;6305907;22;20674;-86
2022/04/10 18:13:01;;;;;;;6.63;2.20;;;;;;;;;;6304570;22;20168;-88
2022/04/10 18:16:09;;;;;;;7.03;2.90;;;;;;;;;;6326552;22;20180;-86
2022/04/10 18:19:18;;;;;;;9.83;2.73;;;;;;;;;;6308246;22;20231;-88
2022/04/10 18:22:24;;;;;;;7.40;3.60;;;;;;;;;;6320427;22;20212;-86
2022/04/10 18:25:29;;;;;;;7.67;2.77;;;;;;;;;;6319362;22;20168;-86
2022/04/10 18:28:34;;;;;;;4.73;2.40;;;;;;;;;;6300722;22;20193;-86
2022/04/10 18:31:39;;;;;;;8.80;3.13;;;;;;;;;;6303019;22;20157;-87
2022/04/10 18:34:47;;;;;;;11.07;3.27;;;;;;;;;;6321889;22;20164;-85
2022/04/10 18:37:52;;;;;;;9.33;3.57;;;;;;;;;;6322971;22;20167;-85
2022/04/10 18:40:57;;;;;;;8.57;3.77;;;;;;;;;;6304738;22;20200;-87
2022/04/10 18:44:04;;;;;;;11.47;3.30;;;;;;;;;;6304378;22;20648;-86
2022/04/10 18:47:10;;;;;;;7.80;3.33;;;;;;;;;;6321165;22;20180;-86